Map

Track Data

SID SEASON NUMBER BASIN SUBBASIN NAME ISO_TIME NATURE LAT LON WMO_WIND WMO_PRES WMO_AGENCY TRACK_TYPE DIST2LAND LANDFALL IFLAG USA_AGENCY USA_ATCF_ID USA_LAT USA_LON USA_RECORD USA_STATUS USA_WIND USA_PRES USA_SSHS USA_R34_NE USA_R34_SE USA_R34_SW USA_R34_NW USA_R50_NE USA_R50_SE USA_R50_SW USA_R50_NW USA_R64_NE USA_R64_SE USA_R64_SW USA_R64_NW USA_POCI USA_ROCI USA_RMW USA_EYE TOKYO_LAT TOKYO_LON TOKYO_GRADE TOKYO_WIND TOKYO_PRES TOKYO_R50_DIR TOKYO_R50_LONG TOKYO_R50_SHORT TOKYO_R30_DIR TOKYO_R30_LONG TOKYO_R30_SHORT TOKYO_LAND CMA_LAT CMA_LON CMA_CAT CMA_WIND CMA_PRES HKO_LAT HKO_LON HKO_CAT HKO_WIND HKO_PRES NEWDELHI_LAT NEWDELHI_LON NEWDELHI_GRADE NEWDELHI_WIND NEWDELHI_PRES NEWDELHI_CI NEWDELHI_DP NEWDELHI_POCI REUNION_LAT REUNION_LON REUNION_TYPE REUNION_WIND REUNION_PRES REUNION_TNUM REUNION_CI REUNION_RMW REUNION_R34_NE REUNION_R34_SE REUNION_R34_SW REUNION_R34_NW REUNION_R50_NE REUNION_R50_SE REUNION_R50_SW REUNION_R50_NW REUNION_R64_NE REUNION_R64_SE REUNION_R64_SW REUNION_R64_NW BOM_LAT BOM_LON BOM_TYPE BOM_WIND BOM_PRES BOM_TNUM BOM_CI BOM_RMW BOM_R34_NE BOM_R34_SE BOM_R34_SW BOM_R34_NW BOM_R50_NE BOM_R50_SE BOM_R50_SW BOM_R50_NW BOM_R64_NE BOM_R64_SE BOM_R64_SW BOM_R64_NW BOM_ROCI BOM_POCI BOM_EYE BOM_POS_METHOD BOM_PRES_METHOD NADI_LAT NADI_LON NADI_CAT NADI_WIND NADI_PRES WELLINGTON_LAT WELLINGTON_LON WELLINGTON_WIND WELLINGTON_PRES DS824_LAT DS824_LON DS824_STAGE DS824_WIND DS824_PRES TD9636_LAT TD9636_LON TD9636_STAGE TD9636_WIND TD9636_PRES TD9635_LAT TD9635_LON TD9635_WIND TD9635_PRES TD9635_ROCI NEUMANN_LAT NEUMANN_LON NEUMANN_CLASS NEUMANN_WIND NEUMANN_PRES MLC_LAT MLC_LON MLC_CLASS MLC_WIND MLC_PRES USA_GUST BOM_GUST BOM_GUST_PER REUNION_GUST REUNION_GUST_PER USA_SEAHGT USA_SEARAD_NE USA_SEARAD_SE USA_SEARAD_SW USA_SEARAD_NW STORM_SPEED STORM_DIR
1899305S11069 1900 44 SI MM NOT_NAMED 1899-10-31 18:00:00 NR -10.6000 68.6000 main 1579 1571 __________O___ -1 -10.6000 68.6000 7 1 247
1899305S11069 1900 44 SI MM NOT_NAMED 1899-10-31 21:00:00 NR -10.6262 68.5322 main 1571 1555 __________P___ -1 -10.6262 68.5322 7 2 243
1899305S11069 1900 44 SI MM NOT_NAMED 1899-11-01 00:00:00 NR -10.6820 68.4316 main 1555 1539 __________P___ -1 -10.6820 68.4316 7 3 237
1899305S11069 1900 44 SI MM NOT_NAMED 1899-11-01 03:00:00 NR -10.7968 68.2653 main 1539 1500 __________P___ -1 -10.7968 68.2653 7 5 233
1899305S11069 1900 44 SI MM NOT_NAMED 1899-11-01 06:00:00 NR -11.0000 68.0000 main 1500 1446 __________O___ -1 -11.0000 68.0000 7 8 231
1899305S11069 1900 44 SI MM NOT_NAMED 1899-11-01 09:00:00 NR -11.3103 67.6183 main 1446 1383 __________P___ -1 -11.3103 67.6183 7 11 229
1899305S11069 1900 44 SI MM NOT_NAMED 1899-11-01 12:00:00 NR -11.7034 67.1661 main 1383 1313 __________P___ -1 -11.7034 67.1661 7 12 227
1899305S11069 1900 44 SI MM NOT_NAMED 1899-11-01 15:00:00 NR -12.1447 66.7058 main 1313 1243 __________P___ -1 -12.1447 66.7058 7 12 223
1899305S11069 1900 44 SI MM NOT_NAMED 1899-11-01 18:00:00 NR -12.6000 66.3000 main 1243 1188 __________O___ -1 -12.6000 66.3000 7 11 219
1899305S11069 1900 44 SI MM NOT_NAMED 1899-11-01 21:00:00 NR -12.9972 65.9946 main 1188 1142 __________P___ -1 -12.9972 65.9946 7 10 213
1899305S11069 1900 44 SI MM NOT_NAMED 1899-11-02 00:00:00 NR -13.4047 65.7575 main 1142 1096 __________P___ -1 -13.4047 65.7575 7 9 205
1899305S11069 1900 44 SI MM NOT_NAMED 1899-11-02 03:00:00 NR -13.8348 65.5917 main 1096 1052 __________P___ -1 -13.8348 65.5917 7 9 196
1899305S11069 1900 44 SI MM NOT_NAMED 1899-11-02 06:00:00 NR -14.3000 65.5000 main 1052 1017 __________O___ -1 -14.3000 65.5000 7 10 187
1899305S11069 1900 44 SI MM NOT_NAMED 1899-11-02 09:00:00 NR -14.8343 65.4695 main 1017 979 __________P___ -1 -14.8343 65.4695 7 11 179
1899305S11069 1900 44 SI MM NOT_NAMED 1899-11-02 12:00:00 NR -15.3999 65.5093 main 979 958 __________P___ -1 -15.3999 65.5093 7 11 174
1899305S11069 1900 44 SI MM NOT_NAMED 1899-11-02 15:00:00 NR -15.9656 65.5946 main 952 935 __________P___ -1 -15.9656 65.5946 7 11 171
1899305S11069 1900 44 SI MM NOT_NAMED 1899-11-02 18:00:00 NR -16.5000 65.7000 main 935 920 __________O___ -1 -16.5000 65.7000 7 10 170
1899305S11069 1900 44 SI MM NOT_NAMED 1899-11-02 21:00:00 NR -16.9040 65.7582 main 924 906 __________P___ -1 -16.9040 65.7582 7 8 170
1899305S11069 1900 44 SI MM NOT_NAMED 1899-11-03 00:00:00 NR -17.2824 65.8343 main 906 899 __________P___ -1 -17.2824 65.8343 7 8 167
1899305S11069 1900 44 SI MM NOT_NAMED 1899-11-03 03:00:00 NR -17.6946 65.9431 main 899 898 __________P___ -1 -17.6946 65.9431 7 10 165
1899305S11069 1900 44 SI MM NOT_NAMED 1899-11-03 06:00:00 NR -18.2000 66.1000 main 902 899 __________O___ -1 -18.2000 66.1000 7 13 163
1899305S11069 1900 44 SI MM NOT_NAMED 1899-11-03 09:00:00 NR -18.8949 66.3238 main 903 903 __________P___ -1 -18.8949 66.3238 7 16 162
1899305S11069 1900 44 SI MM NOT_NAMED 1899-11-03 12:00:00 NR -19.6829 66.5963 main 921 920 __________P___ -1 -19.6829 66.5963 7 17 162
1899305S11069 1900 44 SI MM NOT_NAMED 1899-11-03 15:00:00 NR -20.5044 66.8958 main 948 948 __________P___ -1 -20.5044 66.8958 7 17 161
1899305S11069 1900 44 SI MM NOT_NAMED 1899-11-03 18:00:00 NR -21.3000 67.2000 main 983 983 __________O___ -1 -21.3000 67.2000 7 16 160
1899305S11069 1900 44 SI MM NOT_NAMED 1899-11-03 21:00:00 NR -22.0241 67.4903 main 1023 1023 __________P___ -1 -22.0241 67.4903 7 15 159
1899305S11069 1900 44 SI MM NOT_NAMED 1899-11-04 00:00:00 NR -22.6848 67.7669 main 1068 1068 __________P___ -1 -22.6848 67.7669 7 14 159
1899305S11069 1900 44 SI MM NOT_NAMED 1899-11-04 03:00:00 NR -23.3031 68.0350 main 1104 1104 __________P___ -1 -23.3031 68.0350 7 13 158
1899305S11069 1900 44 SI MM NOT_NAMED 1899-11-04 06:00:00 NR -23.9000 68.3000 main 1153 __________O___ -1 -23.9000 68.3000 7 13 158

About IBTrACS Database

This database is a web-friendly format of International Best Track Archive for Climate Stewardship (IBTrACS), a global best track data archive curated by NOAA dating back to 1842.

Updated: 2021-12-01